sensor_id;sensor_type;location;lat;lon;timestamp;P1;durP1;ratioP1;P2;durP2;ratioP2
63398;SDS011;49533;-34.520;150.798;2022-09-04T00:04:30;2.78;;;0.95;;
63398;SDS011;49533;-34.520;150.798;2022-09-04T00:07:15;1.45;;;0.88;;
63398;SDS011;49533;-34.520;150.798;2022-09-04T00:10:00;4.57;;;0.88;;
63398;SDS011;49533;-34.520;150.798;2022-09-04T00:12:40;1.55;;;0.85;;
63398;SDS011;49533;-34.520;150.798;2022-09-04T00:15:14;3.22;;;1.17;;
63398;SDS011;49533;-34.520;150.798;2022-09-04T00:20:29;8.68;;;1.67;;
63398;SDS011;49533;-34.520;150.798;2022-09-04T00:23:11;5.50;;;1.90;;
63398;SDS011;49533;-34.520;150.798;2022-09-04T00:28:44;6.60;;;1.65;;
63398;SDS011;49533;-34.520;150.798;2022-09-04T00:31:24;3.95;;;1.77;;
63398;SDS011;49533;-34.520;150.798;2022-09-04T00:34:08;2.78;;;1.88;;
63398;SDS011;49533;-34.520;150.798;2022-09-04T00:36:51;1.95;;;1.85;;
63398;SDS011;49533;-34.520;150.798;2022-09-04T00:39:27;2.85;;;1.75;;
63398;SDS011;49533;-34.520;150.798;2022-09-04T00:42:19;4.90;;;1.98;;
63398;SDS011;49533;-34.520;150.798;2022-09-04T00:45:06;4.15;;;1.88;;
63398;SDS011;49533;-34.520;150.798;2022-09-04T00:48:02;3.13;;;1.90;;
63398;SDS011;49533;-34.520;150.798;2022-09-04T00:53:36;4.47;;;1.55;;
63398;SDS011;49533;-34.520;150.798;2022-09-04T00:56:40;2.88;;;1.27;;
63398;SDS011;49533;-34.520;150.798;2022-09-04T00:59:28;3.78;;;1.55;;
63398;SDS011;49533;-34.520;150.798;2022-09-04T01:02:27;4.07;;;1.92;;
63398;SDS011;49533;-34.520;150.798;2022-09-04T01:05:14;3.00;;;1.25;;
63398;SDS011;49533;-34.520;150.798;2022-09-04T01:08:18;4.85;;;1.33;;
63398;SDS011;49533;-34.520;150.798;2022-09-04T01:11:13;5.18;;;1.42;;
63398;SDS011;49533;-34.520;150.798;2022-09-04T01:14:13;2.90;;;1.20;;
63398;SDS011;49533;-34.520;150.798;2022-09-04T01:20:02;4.78;;;1.42;;
63398;SDS011;49533;-34.520;150.798;2022-09-04T01:25:29;1.23;;;0.70;;
63398;SDS011;49533;-34.520;150.798;2022-09-04T01:28:20;1.38;;;0.80;;
63398;SDS011;49533;-34.520;150.798;2022-09-04T01:37:23;4.18;;;1.10;;
63398;SDS011;49533;-34.520;150.798;2022-09-04T01:43:07;3.95;;;1.10;;
63398;SDS011;49533;-34.520;150.798;2022-09-04T01:45:43;2.60;;;0.80;;
63398;SDS011;49533;-34.520;150.798;2022-09-04T01:48:39;3.25;;;1.30;;
63398;SDS011;49533;-34.520;150.798;2022-09-04T01:54:18;4.13;;;1.02;;
63398;SDS011;49533;-34.520;150.798;2022-09-04T01:57:45;2.00;;;0.80;;
63398;SDS011;49533;-34.520;150.798;2022-09-04T02:00:08;2.13;;;1.13;;
63398;SDS011;49533;-34.520;150.798;2022-09-04T02:02:46;1.70;;;0.60;;
63398;SDS011;49533;-34.520;150.798;2022-09-04T02:05:35;2.50;;;0.75;;
63398;SDS011;49533;-34.520;150.798;2022-09-04T02:11:23;2.10;;;0.95;;
63398;SDS011;49533;-34.520;150.798;2022-09-04T02:14:13;4.22;;;1.13;;
63398;SDS011;49533;-34.520;150.798;2022-09-04T02:17:06;3.70;;;1.00;;
63398;SDS011;49533;-34.520;150.798;2022-09-04T02:19:54;0.57;;;0.50;;
63398;SDS011;49533;-34.520;150.798;2022-09-04T02:22:39;1.38;;;0.63;;
63398;SDS011;49533;-34.520;150.798;2022-09-04T02:25:20;2.00;;;0.80;;
63398;SDS011;49533;-34.520;150.798;2022-09-04T02:28:05;3.28;;;0.93;;
63398;SDS011;49533;-34.520;150.798;2022-09-04T02:30:53;2.08;;;0.63;;
63398;SDS011;49533;-34.520;150.798;2022-09-04T02:33:34;2.28;;;0.55;;
63398;SDS011;49533;-34.520;150.798;2022-09-04T02:36:20;0.95;;;0.65;;
63398;SDS011;49533;-34.520;150.798;2022-09-04T02:39:12;3.17;;;0.70;;
63398;SDS011;49533;-34.520;150.798;2022-09-04T02:42:03;0.82;;;0.77;;
63398;SDS011;49533;-34.520;150.798;2022-09-04T02:45:08;3.42;;;0.95;;
63398;SDS011;49533;-34.520;150.798;2022-09-04T02:47:49;2.13;;;0.80;;
63398;SDS011;49533;-34.520;150.798;2022-09-04T02:53:50;3.10;;;0.95;;
63398;SDS011;49533;-34.520;150.798;2022-09-04T02:56:36;2.47;;;0.70;;
63398;SDS011;49533;-34.520;150.798;2022-09-04T02:59:33;1.38;;;0.57;;
63398;SDS011;49533;-34.520;150.798;2022-09-04T03:02:26;4.57;;;1.02;;
63398;SDS011;49533;-34.520;150.798;2022-09-04T03:05:05;2.78;;;0.85;;
63398;SDS011;49533;-34.520;150.798;2022-09-04T03:07:46;4.15;;;0.95;;
63398;SDS011;49533;-34.520;150.798;2022-09-04T03:10:46;3.13;;;0.93;;
63398;SDS011;49533;-34.520;150.798;2022-09-04T03:16:16;3.42;;;0.88;;
63398;SDS011;49533;-34.520;150.798;2022-09-04T03:19:09;2.63;;;1.60;;
63398;SDS011;49533;-34.520;150.798;2022-09-04T03:24:58;5.25;;;1.33;;
63398;SDS011;49533;-34.520;150.798;2022-09-04T03:27:46;2.83;;;0.98;;
63398;SDS011;49533;-34.520;150.798;2022-09-04T03:30:13;1.52;;;0.75;;
63398;SDS011;49533;-34.520;150.798;2022-09-04T03:32:51;3.13;;;1.05;;
63398;SDS011;49533;-34.520;150.798;2022-09-04T03:35:34;2.03;;;0.98;;
63398;SDS011;49533;-34.520;150.798;2022-09-04T03:38:22;2.72;;;1.13;;
63398;SDS011;49533;-34.520;150.798;2022-09-04T03:41:10;4.15;;;1.40;;
63398;SDS011;49533;-34.520;150.798;2022-09-04T03:47:00;1.90;;;0.80;;
63398;SDS011;49533;-34.520;150.798;2022-09-04T03:50:03;4.60;;;1.15;;
63398;SDS011;49533;-34.520;150.798;2022-09-04T03:52:47;2.88;;;1.10;;
63398;SDS011;49533;-34.520;150.798;2022-09-04T03:55:46;2.47;;;1.02;;
63398;SDS011;49533;-34.520;150.798;2022-09-04T03:58:35;5.82;;;1.13;;
63398;SDS011;49533;-34.520;150.798;2022-09-04T04:01:35;5.45;;;1.30;;
63398;SDS011;49533;-34.520;150.798;2022-09-04T04:04:35;6.43;;;1.38;;
63398;SDS011;49533;-34.520;150.798;2022-09-04T04:07:23;5.13;;;1.70;;
63398;SDS011;49533;-34.520;150.798;2022-09-04T04:15:43;11.15;;;1.45;;
63398;SDS011;49533;-34.520;150.798;2022-09-04T04:18:28;4.85;;;1.10;;
63398;SDS011;49533;-34.520;150.798;2022-09-04T04:21:11;5.72;;;1.52;;
63398;SDS011;49533;-34.520;150.798;2022-09-04T04:23:58;11.20;;;1.77;;
63398;SDS011;49533;-34.520;150.798;2022-09-04T04:29:43;5.28;;;1.10;;
63398;SDS011;49533;-34.520;150.798;2022-09-04T04:32:45;3.72;;;1.10;;
63398;SDS011;49533;-34.520;150.798;2022-09-04T04:35:35;4.50;;;1.02;;
63398;SDS011;49533;-34.520;150.798;2022-09-04T04:38:17;3.22;;;1.20;;
63398;SDS011;49533;-34.520;150.798;2022-09-04T04:41:15;7.68;;;1.45;;
63398;SDS011;49533;-34.520;150.798;2022-09-04T04:44:22;10.50;;;1.67;;
63398;SDS011;49533;-34.520;150.798;2022-09-04T04:50:30;4.47;;;1.08;;
63398;SDS011;49533;-34.520;150.798;2022-09-04T04:53:18;7.32;;;1.60;;
63398;SDS011;49533;-34.520;150.798;2022-09-04T04:56:01;7.97;;;1.65;;
63398;SDS011;49533;-34.520;150.798;2022-09-04T04:58:45;4.75;;;1.52;;
63398;SDS011;49533;-34.520;150.798;2022-09-04T05:07:12;5.97;;;1.55;;
63398;SDS011;49533;-34.520;150.798;2022-09-04T05:09:57;4.65;;;1.25;;
63398;SDS011;49533;-34.520;150.798;2022-09-04T05:12:49;4.55;;;1.10;;
63398;SDS011;49533;-34.520;150.798;2022-09-04T05:15:31;4.68;;;1.20;;
63398;SDS011;49533;-34.520;150.798;2022-09-04T05:18:30;7.78;;;1.20;;
63398;SDS011;49533;-34.520;150.798;2022-09-04T05:21:43;4.00;;;0.93;;
63398;SDS011;49533;-34.520;150.798;2022-09-04T05:24:13;3.28;;;0.90;;
63398;SDS011;49533;-34.520;150.798;2022-09-04T05:27:03;3.60;;;1.10;;
63398;SDS011;49533;-34.520;150.798;2022-09-04T05:29:47;5.47;;;1.38;;
63398;SDS011;49533;-34.520;150.798;2022-09-04T05:32:27;5.47;;;1.55;;
63398;SDS011;49533;-34.520;150.798;2022-09-04T05:35:16;2.05;;;0.90;;
63398;SDS011;49533;-34.520;150.798;2022-09-04T05:38:05;4.82;;;1.00;;
63398;SDS011;49533;-34.520;150.798;2022-09-04T05:40:54;1.95;;;1.02;;
63398;SDS011;49533;-34.520;150.798;2022-09-04T05:43:48;3.00;;;1.20;;
63398;SDS011;49533;-34.520;150.798;2022-09-04T05:46:37;3.00;;;1.40;;
63398;SDS011;49533;-34.520;150.798;2022-09-04T05:49:32;4.07;;;1.10;;
63398;SDS011;49533;-34.520;150.798;2022-09-04T05:52:28;5.05;;;1.10;;
63398;SDS011;49533;-34.520;150.798;2022-09-04T05:55:22;2.13;;;1.02;;
63398;SDS011;49533;-34.520;150.798;2022-09-04T05:58:11;3.03;;;1.08;;
63398;SDS011;49533;-34.520;150.798;2022-09-04T06:00:55;4.90;;;1.02;;
63398;SDS011;49533;-34.520;150.798;2022-09-04T06:03:44;1.90;;;1.25;;
63398;SDS011;49533;-34.520;150.798;2022-09-04T06:06:46;3.47;;;1.58;;
63398;SDS011;49533;-34.520;150.798;2022-09-04T06:09:32;2.17;;;0.83;;
63398;SDS011;49533;-34.520;150.798;2022-09-04T06:12:26;1.98;;;0.88;;
63398;SDS011;49533;-34.520;150.798;2022-09-04T06:15:20;2.05;;;1.00;;
63398;SDS011;49533;-34.520;150.798;2022-09-04T06:21:06;3.83;;;0.90;;
63398;SDS011;49533;-34.520;150.798;2022-09-04T06:24:15;4.15;;;1.38;;
63398;SDS011;49533;-34.520;150.798;2022-09-04T06:27:08;2.90;;;0.60;;
63398;SDS011;49533;-34.520;150.798;2022-09-04T06:29:52;1.08;;;0.65;;
63398;SDS011;49533;-34.520;150.798;2022-09-04T06:32:37;3.97;;;0.93;;
63398;SDS011;49533;-34.520;150.798;2022-09-04T06:35:30;4.22;;;1.20;;
63398;SDS011;49533;-34.520;150.798;2022-09-04T06:38:16;2.05;;;1.10;;
63398;SDS011;49533;-34.520;150.798;2022-09-04T06:44:07;1.75;;;0.68;;
63398;SDS011;49533;-34.520;150.798;2022-09-04T06:50:13;3.30;;;1.02;;
63398;SDS011;49533;-34.520;150.798;2022-09-04T06:55:46;3.63;;;1.77;;
63398;SDS011;49533;-34.520;150.798;2022-09-04T06:58:40;4.03;;;0.85;;
63398;SDS011;49533;-34.520;150.798;2022-09-04T07:01:28;3.17;;;1.20;;
63398;SDS011;49533;-34.520;150.798;2022-09-04T07:04:12;2.72;;;1.42;;
63398;SDS011;49533;-34.520;150.798;2022-09-04T07:07:04;2.13;;;0.85;;
63398;SDS011;49533;-34.520;150.798;2022-09-04T07:09:47;1.88;;;0.82;;
63398;SDS011;49533;-34.520;150.798;2022-09-04T07:12:24;1.25;;;0.85;;
63398;SDS011;49533;-34.520;150.798;2022-09-04T07:15:26;3.78;;;0.98;;
63398;SDS011;49533;-34.520;150.798;2022-09-04T07:18:13;3.25;;;1.30;;
63398;SDS011;49533;-34.520;150.798;2022-09-04T07:21:05;1.75;;;0.80;;
63398;SDS011;49533;-34.520;150.798;2022-09-04T07:23:55;2.40;;;0.90;;
63398;SDS011;49533;-34.520;150.798;2022-09-04T07:26:47;3.53;;;0.90;;
63398;SDS011;49533;-34.520;150.798;2022-09-04T07:29:29;1.85;;;0.80;;
63398;SDS011;49533;-34.520;150.798;2022-09-04T07:32:17;3.17;;;0.98;;
63398;SDS011;49533;-34.520;150.798;2022-09-04T07:35:02;2.97;;;0.70;;
63398;SDS011;49533;-34.520;150.798;2022-09-04T07:37:39;1.85;;;0.88;;
63398;SDS011;49533;-34.520;150.798;2022-09-04T07:40:15;1.67;;;0.68;;
63398;SDS011;49533;-34.520;150.798;2022-09-04T07:42:52;1.67;;;1.00;;
63398;SDS011;49533;-34.520;150.798;2022-09-04T07:45:33;1.73;;;1.15;;
63398;SDS011;49533;-34.520;150.798;2022-09-04T07:51:11;3.60;;;0.98;;
63398;SDS011;49533;-34.520;150.798;2022-09-04T07:53:52;2.00;;;1.05;;
63398;SDS011;49533;-34.520;150.798;2022-09-04T07:56:48;2.38;;;1.00;;
63398;SDS011;49533;-34.520;150.798;2022-09-04T07:59:47;1.77;;;1.15;;
63398;SDS011;49533;-34.520;150.798;2022-09-04T08:02:33;2.35;;;1.42;;
63398;SDS011;49533;-34.520;150.798;2022-09-04T08:05:23;4.07;;;1.50;;
63398;SDS011;49533;-34.520;150.798;2022-09-04T08:08:08;1.67;;;1.13;;
63398;SDS011;49533;-34.520;150.798;2022-09-04T08:26:02;3.17;;;1.85;;
63398;SDS011;49533;-34.520;150.798;2022-09-04T08:28:55;2.92;;;1.80;;
63398;SDS011;49533;-34.520;150.798;2022-09-04T08:31:40;3.65;;;2.13;;
63398;SDS011;49533;-34.520;150.798;2022-09-04T08:34:27;1.50;;;1.40;;
63398;SDS011;49533;-34.520;150.798;2022-09-04T08:40:19;2.88;;;1.70;;
63398;SDS011;49533;-34.520;150.798;2022-09-04T08:43:24;4.03;;;1.60;;
63398;SDS011;49533;-34.520;150.798;2022-09-04T08:49:31;4.20;;;2.28;;
63398;SDS011;49533;-34.520;150.798;2022-09-04T08:55:17;1.70;;;1.20;;
63398;SDS011;49533;-34.520;150.798;2022-09-04T08:58:16;2.25;;;1.40;;
63398;SDS011;49533;-34.520;150.798;2022-09-04T09:01:27;2.85;;;1.20;;
63398;SDS011;49533;-34.520;150.798;2022-09-04T09:04:25;2.88;;;0.90;;
63398;SDS011;49533;-34.520;150.798;2022-09-04T09:13:15;4.72;;;1.30;;
63398;SDS011;49533;-34.520;150.798;2022-09-04T09:16:15;1.55;;;0.95;;
63398;SDS011;49533;-34.520;150.798;2022-09-04T09:19:00;2.25;;;1.17;;
63398;SDS011;49533;-34.520;150.798;2022-09-04T09:21:51;4.68;;;1.30;;
63398;SDS011;49533;-34.520;150.798;2022-09-04T09:24:51;4.53;;;1.33;;
63398;SDS011;49533;-34.520;150.798;2022-09-04T09:27:44;3.17;;;1.05;;
63398;SDS011;49533;-34.520;150.798;2022-09-04T09:30:45;2.97;;;1.30;;
63398;SDS011;49533;-34.520;150.798;2022-09-04T09:36:46;4.95;;;1.13;;
63398;SDS011;49533;-34.520;150.798;2022-09-04T09:42:39;2.13;;;0.93;;
63398;SDS011;49533;-34.520;150.798;2022-09-04T09:48:31;2.30;;;1.00;;
63398;SDS011;49533;-34.520;150.798;2022-09-04T09:57:37;1.98;;;1.00;;
63398;SDS011;49533;-34.520;150.798;2022-09-04T10:00:31;1.02;;;0.93;;
63398;SDS011;49533;-34.520;150.798;2022-09-04T10:03:19;1.33;;;0.70;;
63398;SDS011;49533;-34.520;150.798;2022-09-04T10:06:11;2.80;;;0.70;;
63398;SDS011;49533;-34.520;150.798;2022-09-04T10:12:04;2.80;;;0.75;;
63398;SDS011;49533;-34.520;150.798;2022-09-04T10:15:00;1.38;;;0.80;;
63398;SDS011;49533;-34.520;150.798;2022-09-04T10:17:47;1.55;;;0.75;;
63398;SDS011;49533;-34.520;150.798;2022-09-04T10:23:54;3.20;;;1.15;;
63398;SDS011;49533;-34.520;150.798;2022-09-04T10:26:41;2.08;;;0.88;;
63398;SDS011;49533;-34.520;150.798;2022-09-04T10:29:32;1.88;;;0.63;;
63398;SDS011;49533;-34.520;150.798;2022-09-04T10:32:19;0.95;;;0.65;;
63398;SDS011;49533;-34.520;150.798;2022-09-04T10:35:10;1.55;;;0.80;;
63398;SDS011;49533;-34.520;150.798;2022-09-04T10:37:56;0.95;;;0.50;;
63398;SDS011;49533;-34.520;150.798;2022-09-04T10:40:59;1.98;;;0.70;;
63398;SDS011;49533;-34.520;150.798;2022-09-04T10:46:36;1.17;;;0.65;;
63398;SDS011;49533;-34.520;150.798;2022-09-04T10:49:24;1.20;;;0.85;;
63398;SDS011;49533;-34.520;150.798;2022-09-04T10:52:19;3.63;;;0.73;;
63398;SDS011;49533;-34.520;150.798;2022-09-04T10:55:15;0.82;;;0.55;;
63398;SDS011;49533;-34.520;150.798;2022-09-04T10:58:02;1.30;;;0.50;;
63398;SDS011;49533;-34.520;150.798;2022-09-04T11:03:21;1.65;;;0.47;;
63398;SDS011;49533;-34.520;150.798;2022-09-04T11:12:26;0.88;;;0.65;;
63398;SDS011;49533;-34.520;150.798;2022-09-04T11:15:00;0.70;;;0.70;;
63398;SDS011;49533;-34.520;150.798;2022-09-04T11:17:51;1.98;;;0.60;;
63398;SDS011;49533;-34.520;150.798;2022-09-04T11:23:38;1.60;;;0.77;;
63398;SDS011;49533;-34.520;150.798;2022-09-04T11:26:34;1.23;;;0.50;;
63398;SDS011;49533;-34.520;150.798;2022-09-04T11:29:33;1.27;;;0.60;;
63398;SDS011;49533;-34.520;150.798;2022-09-04T11:41:27;2.15;;;0.70;;
63398;SDS011;49533;-34.520;150.798;2022-09-04T11:44:14;1.02;;;0.40;;
63398;SDS011;49533;-34.520;150.798;2022-09-04T11:50:03;1.40;;;0.60;;
63398;SDS011;49533;-34.520;150.798;2022-09-04T11:52:49;1.45;;;0.80;;
63398;SDS011;49533;-34.520;150.798;2022-09-04T11:55:46;2.10;;;0.70;;
63398;SDS011;49533;-34.520;150.798;2022-09-04T11:58:47;2.67;;;0.82;;
63398;SDS011;49533;-34.520;150.798;2022-09-04T12:02:01;1.90;;;0.57;;
63398;SDS011;49533;-34.520;150.798;2022-09-04T12:04:41;0.75;;;0.50;;
63398;SDS011;49533;-34.520;150.798;2022-09-04T12:07:36;1.75;;;0.68;;
63398;SDS011;49533;-34.520;150.798;2022-09-04T12:10:30;2.03;;;0.65;;
63398;SDS011;49533;-34.520;150.798;2022-09-04T12:13:18;0.68;;;0.35;;
63398;SDS011;49533;-34.520;150.798;2022-09-04T12:16:13;2.45;;;1.05;;
63398;SDS011;49533;-34.520;150.798;2022-09-04T12:25:05;0.82;;;0.75;;
63398;SDS011;49533;-34.520;150.798;2022-09-04T12:27:55;1.02;;;0.55;;
63398;SDS011;49533;-34.520;150.798;2022-09-04T12:30:54;2.10;;;0.68;;
63398;SDS011;49533;-34.520;150.798;2022-09-04T12:33:41;1.52;;;0.93;;
63398;SDS011;49533;-34.520;150.798;2022-09-04T12:36:35;1.75;;;1.13;;
63398;SDS011;49533;-34.520;150.798;2022-09-04T12:39:34;4.28;;;0.88;;
63398;SDS011;49533;-34.520;150.798;2022-09-04T12:42:27;1.60;;;0.85;;
63398;SDS011;49533;-34.520;150.798;2022-09-04T12:47:59;2.05;;;0.60;;
63398;SDS011;49533;-34.520;150.798;2022-09-04T12:50:47;1.25;;;0.68;;
63398;SDS011;49533;-34.520;150.798;2022-09-04T12:53:26;1.55;;;0.40;;
63398;SDS011;49533;-34.520;150.798;2022-09-04T12:56:23;0.60;;;0.40;;
63398;SDS011;49533;-34.520;150.798;2022-09-04T12:59:23;0.60;;;0.60;;
63398;SDS011;49533;-34.520;150.798;2022-09-04T13:09:17;1.48;;;0.65;;
63398;SDS011;49533;-34.520;150.798;2022-09-04T13:20:43;1.10;;;0.63;;
63398;SDS011;49533;-34.520;150.798;2022-09-04T13:23:38;2.15;;;0.80;;
63398;SDS011;49533;-34.520;150.798;2022-09-04T13:29:33;2.80;;;0.73;;
63398;SDS011;49533;-34.520;150.798;2022-09-04T13:35:15;1.33;;;0.70;;
63398;SDS011;49533;-34.520;150.798;2022-09-04T13:38:10;1.98;;;1.00;;
63398;SDS011;49533;-34.520;150.798;2022-09-04T13:44:02;1.65;;;0.65;;
63398;SDS011;49533;-34.520;150.798;2022-09-04T13:46:59;0.30;;;0.30;;
63398;SDS011;49533;-34.520;150.798;2022-09-04T13:49:39;1.45;;;0.57;;
63398;SDS011;49533;-34.520;150.798;2022-09-04T13:52:14;0.40;;;0.40;;
63398;SDS011;49533;-34.520;150.798;2022-09-04T13:54:57;1.30;;;0.50;;
63398;SDS011;49533;-34.520;150.798;2022-09-04T13:57:30;1.80;;;0.60;;
63398;SDS011;49533;-34.520;150.798;2022-09-04T14:00:08;2.10;;;0.60;;
63398;SDS011;49533;-34.520;150.798;2022-09-04T14:02:36;1.83;;;0.82;;
63398;SDS011;49533;-34.520;150.798;2022-09-04T14:05:09;1.38;;;0.63;;
63398;SDS011;49533;-34.520;150.798;2022-09-04T14:07:41;0.40;;;0.40;;
63398;SDS011;49533;-34.520;150.798;2022-09-04T14:10:16;1.80;;;0.75;;
63398;SDS011;49533;-34.520;150.798;2022-09-04T14:15:53;2.03;;;0.90;;
63398;SDS011;49533;-34.520;150.798;2022-09-04T14:18:39;0.75;;;0.65;;
63398;SDS011;49533;-34.520;150.798;2022-09-04T14:21:22;1.70;;;0.80;;
63398;SDS011;49533;-34.520;150.798;2022-09-04T14:24:07;3.30;;;0.60;;
63398;SDS011;49533;-34.520;150.798;2022-09-04T14:26:52;0.65;;;0.40;;
63398;SDS011;49533;-34.520;150.798;2022-09-04T14:29:33;1.30;;;0.60;;
63398;SDS011;49533;-34.520;150.798;2022-09-04T14:32:23;1.08;;;0.70;;
63398;SDS011;49533;-34.520;150.798;2022-09-04T14:35:06;2.00;;;0.85;;
63398;SDS011;49533;-34.520;150.798;2022-09-04T14:37:53;3.47;;;0.70;;
63398;SDS011;49533;-34.520;150.798;2022-09-04T14:40:32;1.10;;;0.90;;
63398;SDS011;49533;-34.520;150.798;2022-09-04T14:43:08;1.42;;;0.60;;
63398;SDS011;49533;-34.520;150.798;2022-09-04T14:45:57;1.02;;;0.55;;
63398;SDS011;49533;-34.520;150.798;2022-09-04T14:48:47;1.70;;;0.70;;
63398;SDS011;49533;-34.520;150.798;2022-09-04T14:51:31;1.20;;;0.70;;
63398;SDS011;49533;-34.520;150.798;2022-09-04T14:54:05;1.90;;;0.77;;
63398;SDS011;49533;-34.520;150.798;2022-09-04T14:56:45;0.52;;;0.52;;
63398;SDS011;49533;-34.520;150.798;2022-09-04T15:04:59;1.20;;;0.57;;
63398;SDS011;49533;-34.520;150.798;2022-09-04T15:07:47;2.00;;;0.55;;
63398;SDS011;49533;-34.520;150.798;2022-09-04T15:10:23;2.70;;;0.80;;
63398;SDS011;49533;-34.520;150.798;2022-09-04T15:13:17;1.63;;;0.60;;
63398;SDS011;49533;-34.520;150.798;2022-09-04T15:15:59;2.08;;;0.70;;
63398;SDS011;49533;-34.520;150.798;2022-09-04T15:18:44;1.38;;;0.70;;
63398;SDS011;49533;-34.520;150.798;2022-09-04T15:21:32;0.88;;;0.50;;
63398;SDS011;49533;-34.520;150.798;2022-09-04T15:24:11;0.45;;;0.45;;
63398;SDS011;49533;-34.520;150.798;2022-09-04T15:26:57;3.58;;;1.08;;
63398;SDS011;49533;-34.520;150.798;2022-09-04T15:29:48;2.25;;;0.60;;
63398;SDS011;49533;-34.520;150.798;2022-09-04T15:32:31;1.27;;;0.82;;
63398;SDS011;49533;-34.520;150.798;2022-09-04T15:35:07;1.05;;;0.57;;
63398;SDS011;49533;-34.520;150.798;2022-09-04T15:37:41;1.45;;;0.80;;
63398;SDS011;49533;-34.520;150.798;2022-09-04T15:40:19;0.90;;;0.65;;
63398;SDS011;49533;-34.520;150.798;2022-09-04T15:43:00;0.50;;;0.50;;
63398;SDS011;49533;-34.520;150.798;2022-09-04T15:45:38;2.22;;;0.80;;
63398;SDS011;49533;-34.520;150.798;2022-09-04T15:51:21;3.13;;;0.70;;
63398;SDS011;49533;-34.520;150.798;2022-09-04T15:54:13;0.63;;;0.47;;
63398;SDS011;49533;-34.520;150.798;2022-09-04T15:56:56;1.33;;;0.68;;
63398;SDS011;49533;-34.520;150.798;2022-09-04T15:59:34;1.75;;;0.63;;
63398;SDS011;49533;-34.520;150.798;2022-09-04T16:02:19;1.92;;;0.57;;
63398;SDS011;49533;-34.520;150.798;2022-09-04T16:05:04;1.90;;;0.88;;
63398;SDS011;49533;-34.520;150.798;2022-09-04T16:07:45;0.82;;;0.73;;
63398;SDS011;49533;-34.520;150.798;2022-09-04T16:10:38;1.15;;;0.43;;
63398;SDS011;49533;-34.520;150.798;2022-09-04T16:13:30;1.70;;;0.60;;
63398;SDS011;49533;-34.520;150.798;2022-09-04T16:16:08;1.48;;;0.52;;
63398;SDS011;49533;-34.520;150.798;2022-09-04T16:21:36;1.15;;;0.60;;
63398;SDS011;49533;-34.520;150.798;2022-09-04T16:24:16;1.55;;;0.68;;
63398;SDS011;49533;-34.520;150.798;2022-09-04T16:26:55;1.08;;;0.35;;
63398;SDS011;49533;-34.520;150.798;2022-09-04T16:29:27;0.98;;;0.43;;
63398;SDS011;49533;-34.520;150.798;2022-09-04T16:32:02;0.55;;;0.43;;
63398;SDS011;49533;-34.520;150.798;2022-09-04T16:34:51;2.40;;;1.13;;
63398;SDS011;49533;-34.520;150.798;2022-09-04T16:37:29;2.35;;;0.60;;
63398;SDS011;49533;-34.520;150.798;2022-09-04T16:40:21;0.80;;;0.52;;
63398;SDS011;49533;-34.520;150.798;2022-09-04T16:43:39;1.38;;;1.00;;
63398;SDS011;49533;-34.520;150.798;2022-09-04T16:46:04;0.47;;;0.47;;
63398;SDS011;49533;-34.520;150.798;2022-09-04T16:51:25;0.82;;;0.38;;
63398;SDS011;49533;-34.520;150.798;2022-09-04T16:54:05;1.40;;;0.50;;
63398;SDS011;49533;-34.520;150.798;2022-09-04T16:56:49;0.40;;;0.40;;
63398;SDS011;49533;-34.520;150.798;2022-09-04T16:59:29;1.05;;;0.60;;
63398;SDS011;49533;-34.520;150.798;2022-09-04T17:02:07;0.43;;;0.40;;
63398;SDS011;49533;-34.520;150.798;2022-09-04T17:04:48;0.80;;;0.40;;
63398;SDS011;49533;-34.520;150.798;2022-09-04T17:07:41;1.58;;;0.50;;
63398;SDS011;49533;-34.520;150.798;2022-09-04T17:10:34;1.92;;;0.43;;
63398;SDS011;49533;-34.520;150.798;2022-09-04T17:13:09;1.38;;;0.60;;
63398;SDS011;49533;-34.520;150.798;2022-09-04T17:15:57;1.40;;;0.50;;
63398;SDS011;49533;-34.520;150.798;2022-09-04T17:18:43;1.35;;;0.77;;
63398;SDS011;49533;-34.520;150.798;2022-09-04T17:21:18;0.50;;;0.50;;
63398;SDS011;49533;-34.520;150.798;2022-09-04T17:24:10;0.75;;;0.57;;
63398;SDS011;49533;-34.520;150.798;2022-09-04T17:26:52;1.23;;;0.65;;
63398;SDS011;49533;-34.520;150.798;2022-09-04T17:29:31;1.48;;;0.80;;
63398;SDS011;49533;-34.520;150.798;2022-09-04T17:32:12;1.83;;;0.88;;
63398;SDS011;49533;-34.520;150.798;2022-09-04T17:37:54;1.45;;;0.60;;
63398;SDS011;49533;-34.520;150.798;2022-09-04T17:40:43;0.65;;;0.50;;
63398;SDS011;49533;-34.520;150.798;2022-09-04T17:43:29;1.58;;;1.15;;
63398;SDS011;49533;-34.520;150.798;2022-09-04T17:46:31;0.68;;;0.50;;
63398;SDS011;49533;-34.520;150.798;2022-09-04T17:49:12;0.63;;;0.40;;
63398;SDS011;49533;-34.520;150.798;2022-09-04T17:51:53;1.90;;;0.65;;
63398;SDS011;49533;-34.520;150.798;2022-09-04T17:54:25;0.68;;;0.68;;
63398;SDS011;49533;-34.520;150.798;2022-09-04T17:56:56;1.60;;;0.60;;
63398;SDS011;49533;-34.520;150.798;2022-09-04T17:59:41;1.92;;;0.40;;
63398;SDS011;49533;-34.520;150.798;2022-09-04T18:02:23;1.50;;;0.52;;
63398;SDS011;49533;-34.520;150.798;2022-09-04T18:05:20;1.48;;;0.50;;
63398;SDS011;49533;-34.520;150.798;2022-09-04T18:08:12;1.55;;;0.90;;
63398;SDS011;49533;-34.520;150.798;2022-09-04T18:11:02;1.55;;;0.60;;
63398;SDS011;49533;-34.520;150.798;2022-09-04T18:13:39;2.65;;;0.68;;
63398;SDS011;49533;-34.520;150.798;2022-09-04T18:16:51;1.05;;;0.50;;
63398;SDS011;49533;-34.520;150.798;2022-09-04T18:19:25;0.60;;;0.60;;
63398;SDS011;49533;-34.520;150.798;2022-09-04T18:27:49;0.60;;;0.50;;
63398;SDS011;49533;-34.520;150.798;2022-09-04T18:30:31;1.17;;;0.65;;
63398;SDS011;49533;-34.520;150.798;2022-09-04T18:33:15;1.05;;;0.70;;
63398;SDS011;49533;-34.520;150.798;2022-09-04T18:35:57;0.40;;;0.40;;
63398;SDS011;49533;-34.520;150.798;2022-09-04T18:38:38;0.65;;;0.65;;
63398;SDS011;49533;-34.520;150.798;2022-09-04T18:41:28;2.55;;;1.13;;
63398;SDS011;49533;-34.520;150.798;2022-09-04T18:44:32;1.17;;;0.60;;
63398;SDS011;49533;-34.520;150.798;2022-09-04T18:46:48;1.20;;;0.55;;
63398;SDS011;49533;-34.520;150.798;2022-09-04T18:49:17;1.00;;;0.85;;
63398;SDS011;49533;-34.520;150.798;2022-09-04T18:51:49;1.50;;;0.60;;
63398;SDS011;49533;-34.520;150.798;2022-09-04T18:54:33;0.68;;;0.60;;
63398;SDS011;49533;-34.520;150.798;2022-09-04T19:00:08;0.55;;;0.55;;
63398;SDS011;49533;-34.520;150.798;2022-09-04T19:02:50;0.85;;;0.57;;
63398;SDS011;49533;-34.520;150.798;2022-09-04T19:05:33;2.42;;;1.00;;
63398;SDS011;49533;-34.520;150.798;2022-09-04T19:08:04;0.68;;;0.60;;
63398;SDS011;49533;-34.520;150.798;2022-09-04T19:10:40;0.50;;;0.50;;
63398;SDS011;49533;-34.520;150.798;2022-09-04T19:13:21;0.65;;;0.60;;
63398;SDS011;49533;-34.520;150.798;2022-09-04T19:16:03;0.47;;;0.47;;
63398;SDS011;49533;-34.520;150.798;2022-09-04T19:18:40;0.32;;;0.32;;
63398;SDS011;49533;-34.520;150.798;2022-09-04T19:21:20;1.08;;;0.70;;
63398;SDS011;49533;-34.520;150.798;2022-09-04T19:24:04;0.40;;;0.40;;
63398;SDS011;49533;-34.520;150.798;2022-09-04T19:27:06;0.68;;;0.60;;
63398;SDS011;49533;-34.520;150.798;2022-09-04T19:29:42;1.15;;;0.43;;
63398;SDS011;49533;-34.520;150.798;2022-09-04T19:32:24;0.93;;;0.75;;
63398;SDS011;49533;-34.520;150.798;2022-09-04T19:35:04;0.50;;;0.45;;
63398;SDS011;49533;-34.520;150.798;2022-09-04T19:37:51;0.40;;;0.40;;
63398;SDS011;49533;-34.520;150.798;2022-09-04T19:40:25;0.40;;;0.40;;